createdAt,value
2019-02-07T00:00:23.783Z,0.9
2019-02-07T00:01:24.245Z,0.92
2019-02-07T00:02:26.507Z,0.88
2019-02-07T00:03:23.872Z,0.88
2019-02-07T00:04:24.696Z,0.88
2019-02-07T00:05:24.378Z,0.88
2019-02-07T00:06:25.612Z,0.87
2019-02-07T00:07:23.927Z,0.84
2019-02-07T00:08:24.368Z,0.86
2019-02-07T00:09:23.843Z,0.82
2019-02-07T00:10:23.790Z,0.83
2019-02-07T00:11:24.243Z,0.85
2019-02-07T00:12:24.132Z,0.83
2019-02-07T00:13:24.134Z,0.86
2019-02-07T00:14:24.131Z,0.83
2019-02-07T00:15:24.237Z,0.86
2019-02-07T00:16:23.801Z,0.83
2019-02-07T00:17:25.512Z,0.86
2019-02-07T00:18:23.809Z,0.86
2019-02-07T00:19:24.177Z,0.84
2019-02-07T00:20:23.867Z,0.87
2019-02-07T00:21:23.977Z,0.88
2019-02-07T00:22:23.867Z,0.87
2019-02-07T00:23:23.964Z,0.87
2019-02-07T00:24:23.728Z,0.87
2019-02-07T00:25:26.232Z,0.88
2019-02-07T00:26:24.620Z,0.87
2019-02-07T00:27:23.764Z,0.86
2019-02-07T00:28:24.017Z,0.84
2019-02-07T00:29:24.053Z,0.84
2019-02-07T00:30:24.249Z,0.85
2019-02-07T00:31:24.783Z,0.85
2019-02-07T00:32:23.950Z,0.88
2019-02-07T00:33:28.024Z,0.85
2019-02-07T00:34:24.445Z,0.87
2019-02-07T00:35:24.592Z,0.88
2019-02-07T00:36:23.786Z,0.88
2019-02-07T00:37:24.171Z,0.88
2019-02-07T00:38:23.758Z,0.89
2019-02-07T00:39:24.594Z,0.87
2019-02-07T00:40:24.103Z,0.86
2019-02-07T00:41:26.438Z,0.83
2019-02-07T00:42:24.410Z,0.81
2019-02-07T00:43:23.804Z,0.81
2019-02-07T00:44:23.912Z,0.81
2019-02-07T00:45:23.693Z,0.8
2019-02-07T00:46:23.940Z,0.8
2019-02-07T00:47:24.242Z,0.75
2019-02-07T00:48:23.814Z,0.71
2019-02-07T00:49:28.027Z,0.69
2019-02-07T00:50:24.705Z,0.71
2019-02-07T00:51:23.733Z,0.72
2019-02-07T00:52:24.792Z,0.76
2019-02-07T00:53:23.802Z,0.76
2019-02-07T00:54:24.600Z,0.79
2019-02-07T00:55:23.740Z,0.79
2019-02-07T00:56:25.322Z,0.78
2019-02-07T00:57:23.880Z,0.79
2019-02-07T00:58:24.014Z,0.82
2019-02-07T00:59:24.013Z,0.8
2019-02-07T01:00:23.703Z,0.78
2019-02-07T01:01:23.809Z,0.8
2019-02-07T01:02:23.938Z,0.82
2019-02-07T01:03:25.525Z,0.81
2019-02-07T01:04:25.872Z,0.8
2019-02-07T01:05:24.065Z,0.77
2019-02-07T01:06:23.678Z,0.76
2019-02-07T01:07:23.917Z,0.77
2019-02-07T01:08:23.855Z,0.77
2019-02-07T01:09:23.776Z,0.78
2019-02-07T01:10:24.096Z,0.74
2019-02-07T01:11:23.715Z,0.74
2019-02-07T01:12:26.438Z,0.71
2019-02-07T01:13:23.707Z,0.7
2019-02-07T01:14:23.829Z,0.7
2019-02-07T01:15:23.859Z,0.66
2019-02-07T01:16:24.439Z,0.68
2019-02-07T01:17:23.699Z,0.65
2019-02-07T01:18:24.237Z,0.66
2019-02-07T01:19:23.755Z,0.66
2019-02-07T01:20:23.717Z,0.69
2019-02-07T01:21:24.559Z,0.66
2019-02-07T01:22:23.747Z,0.7
2019-02-07T01:23:23.983Z,0.69
2019-02-07T01:24:23.987Z,0.69
2019-02-07T01:25:23.805Z,0.68
2019-02-07T01:26:23.754Z,0.7
2019-02-07T01:27:25.729Z,0.71
2019-02-07T01:28:25.518Z,0.71
2019-02-07T01:29:23.659Z,0.69
2019-02-07T01:30:23.903Z,0.7
2019-02-07T01:31:23.911Z,0.69
2019-02-07T01:32:23.627Z,0.71
2019-02-07T01:33:23.625Z,0.71
2019-02-07T01:34:24.029Z,0.7
2019-02-07T01:35:26.287Z,0.66
2019-02-07T01:36:23.693Z,0.66
2019-02-07T01:37:23.691Z,0.66
2019-02-07T01:38:23.751Z,0.67
2019-02-07T01:39:23.771Z,0.65
2019-02-07T01:40:24.749Z,0.66
2019-02-07T01:41:23.647Z,0.63
2019-02-07T01:42:24.491Z,0.59
2019-02-07T01:43:24.188Z,0.57
2019-02-07T01:44:24.397Z,0.54
2019-02-07T01:45:23.709Z,0.54
2019-02-07T01:46:24.320Z,0.56
2019-02-07T01:47:23.761Z,0.56
2019-02-07T01:48:23.597Z,0.57
2019-02-07T01:49:24.146Z,0.52
2019-02-07T01:50:25.007Z,0.53
2019-02-07T01:51:25.455Z,0.54
2019-02-07T01:52:24.161Z,0.55
2019-02-07T01:53:24.164Z,0.53
2019-02-07T01:54:24.069Z,0.53
2019-02-07T01:55:24.396Z,0.53
2019-02-07T01:56:25.414Z,0.56
2019-02-07T01:57:23.826Z,0.58
2019-02-07T01:58:26.637Z,0.58
2019-02-07T01:59:23.664Z,0.6
2019-02-07T02:00:23.820Z,0.63
2019-02-07T02:01:25.453Z,0.61
2019-02-07T02:02:25.461Z,0.64
2019-02-07T02:03:23.709Z,0.64
2019-02-07T02:04:24.025Z,0.64
2019-02-07T02:05:23.833Z,0.63
2019-02-07T02:06:27.197Z,0.62
2019-02-07T02:07:23.590Z,0.62
2019-02-07T02:08:23.957Z,0.61
2019-02-07T02:09:23.976Z,0.62
2019-02-07T02:10:23.621Z,0.63
2019-02-07T02:11:23.598Z,0.59
2019-02-07T02:12:23.890Z,0.59
2019-02-07T02:13:24.388Z,0.61
2019-02-07T02:14:24.103Z,0.56
2019-02-07T02:15:25.687Z,0.58
2019-02-07T02:16:24.480Z,0.58
2019-02-07T02:17:23.675Z,0.58
2019-02-07T02:18:23.926Z,0.59
2019-02-07T02:19:24.226Z,0.58
2019-02-07T02:20:23.717Z,0.58
2019-02-07T02:21:24.944Z,0.55
2019-02-07T02:22:23.944Z,0.57
2019-02-07T02:23:23.613Z,0.55
2019-02-07T02:24:24.159Z,0.53
2019-02-07T02:25:23.555Z,0.53
2019-02-07T02:26:23.614Z,0.53
2019-02-07T02:27:23.682Z,0.54
2019-02-07T02:28:23.662Z,0.53
2019-02-07T02:29:25.922Z,0.52
2019-02-07T02:30:23.757Z,0.52
2019-02-07T02:31:23.934Z,0.51
2019-02-07T02:32:24.041Z,0.52
2019-02-07T02:33:24.233Z,0.51
2019-02-07T02:34:23.797Z,0.53
2019-02-07T02:35:24.038Z,0.53
2019-02-07T02:36:23.531Z,0.56
2019-02-07T02:37:23.555Z,0.54
2019-02-07T02:38:23.671Z,0.53
2019-02-07T02:39:23.799Z,0.52
2019-02-07T02:40:23.790Z,0.52
2019-02-07T02:41:23.433Z,0.53
2019-02-07T02:42:23.353Z,0.53
2019-02-07T02:43:23.892Z,0.52
2019-02-07T02:44:26.018Z,0.51
2019-02-07T02:45:38.224Z,0.51
2019-02-07T02:46:23.394Z,0.54
2019-02-07T02:47:23.594Z,0.53
2019-02-07T02:48:23.546Z,0.5
2019-02-07T02:49:24.292Z,0.51
2019-02-07T02:50:23.517Z,0.52
2019-02-07T02:51:24.140Z,0.52
2019-02-07T02:52:26.043Z,0.52
2019-02-07T02:53:23.586Z,0.52
2019-02-07T02:54:23.526Z,0.52
2019-02-07T02:55:23.586Z,0.51
2019-02-07T02:56:23.776Z,0.47
2019-02-07T02:57:23.694Z,0.49
2019-02-07T02:58:23.772Z,0.51
2019-02-07T02:59:23.503Z,0.5
2019-02-07T03:00:23.681Z,0.51
2019-02-07T03:01:23.844Z,0.47
2019-02-07T03:02:23.914Z,0.46
2019-02-07T03:03:23.864Z,0.45
2019-02-07T03:04:23.741Z,0.44
2019-02-07T03:05:23.565Z,0.39
2019-02-07T03:06:23.514Z,0.38
2019-02-07T03:07:23.595Z,0.39
2019-02-07T03:08:23.759Z,0.38
2019-02-07T03:09:23.614Z,0.38
2019-02-07T03:10:23.861Z,0.39
2019-02-07T03:11:23.646Z,0.35
2019-02-07T03:12:23.923Z,0.37
2019-02-07T03:13:23.515Z,0.4
2019-02-07T03:14:23.501Z,0.36
2019-02-07T03:15:25.012Z,0.4
2019-02-07T03:16:23.794Z,0.41
2019-02-07T03:17:23.589Z,0.4
2019-02-07T03:18:23.803Z,0.45
2019-02-07T03:19:23.808Z,0.43
2019-02-07T03:20:23.825Z,0.46
2019-02-07T03:21:23.513Z,0.46
2019-02-07T03:22:23.640Z,0.45
2019-02-07T03:23:26.171Z,0.45
2019-02-07T03:24:23.885Z,0.46
2019-02-07T03:25:23.511Z,0.44
2019-02-07T03:26:23.555Z,0.42
2019-02-07T03:27:23.869Z,0.42
2019-02-07T03:28:23.984Z,0.42
2019-02-07T03:29:23.880Z,0.45
2019-02-07T03:30:23.923Z,0.44
2019-02-07T03:31:26.090Z,0.43
2019-02-07T03:32:23.669Z,0.45
2019-02-07T03:33:24.438Z,0.41
2019-02-07T03:34:24.234Z,0.44
2019-02-07T03:35:23.539Z,0.4
2019-02-07T03:36:23.831Z,0.43
2019-02-07T03:37:23.721Z,0.39
2019-02-07T03:38:23.722Z,0.39
2019-02-07T03:39:23.635Z,0.4
2019-02-07T03:40:24.278Z,0.38
2019-02-07T03:41:23.741Z,0.4
2019-02-07T03:42:23.662Z,0.36
2019-02-07T03:43:23.541Z,0.36
2019-02-07T03:44:23.774Z,0.35
2019-02-07T03:45:23.554Z,0.34
2019-02-07T03:46:24.890Z,0.34
2019-02-07T03:47:23.785Z,0.34
2019-02-07T03:48:25.332Z,0.34
2019-02-07T03:49:23.918Z,0.33
2019-02-07T03:50:23.457Z,0.34
2019-02-07T03:51:23.432Z,0.34
2019-02-07T03:52:25.397Z,0.36
2019-02-07T03:53:24.250Z,0.39
2019-02-07T03:54:26.072Z,0.33
2019-02-07T03:55:25.292Z,0.37
2019-02-07T03:56:23.497Z,0.35
2019-02-07T03:57:23.494Z,0.35
2019-02-07T03:58:24.792Z,0.34
2019-02-07T03:59:23.632Z,0.32
2019-02-07T04:00:23.410Z,0.3
2019-02-07T04:01:23.679Z,0.27
2019-02-07T04:02:26.959Z,0.28
2019-02-07T04:03:23.545Z,0.27
2019-02-07T04:04:23.577Z,0.24
2019-02-07T04:05:23.590Z,0.27
2019-02-07T04:06:23.580Z,0.29
2019-02-07T04:07:23.421Z,0.27
2019-02-07T04:08:23.422Z,0.27
2019-02-07T04:09:23.841Z,0.27
2019-02-07T04:10:23.461Z,0.28
2019-02-07T04:11:23.592Z,0.29
2019-02-07T04:12:23.381Z,0.3
2019-02-07T04:13:23.397Z,0.3
2019-02-07T04:14:23.783Z,0.3
2019-02-07T04:15:23.422Z,0.3
2019-02-07T04:16:23.385Z,0.28
2019-02-07T04:17:24.041Z,0.27
2019-02-07T04:18:23.408Z,0.27
2019-02-07T04:19:23.937Z,0.27
2019-02-07T04:20:23.519Z,0.26
2019-02-07T04:21:23.676Z,0.28
2019-02-07T04:22:23.612Z,0.27
2019-02-07T04:23:23.495Z,0.27
2019-02-07T04:24:23.535Z,0.26
2019-02-07T04:25:25.188Z,0.24
2019-02-07T04:26:24.259Z,0.22
2019-02-07T04:27:23.536Z,0.2
2019-02-07T04:28:23.818Z,0.2
2019-02-07T04:29:23.955Z,0.21
2019-02-07T04:30:23.418Z,0.21
2019-02-07T04:31:23.852Z,0.21
2019-02-07T04:32:23.471Z,0.2
2019-02-07T04:33:25.509Z,0.19
2019-02-07T04:34:23.401Z,0.2
2019-02-07T04:35:23.473Z,0.2
2019-02-07T04:36:24.010Z,0.19
2019-02-07T04:37:24.815Z,0.2
2019-02-07T04:38:23.487Z,0.22
2019-02-07T04:39:23.434Z,0.2
2019-02-07T04:40:23.464Z,0.2
2019-02-07T04:41:25.862Z,0.19
2019-02-07T04:42:23.452Z,0.2
2019-02-07T04:43:23.664Z,0.19
2019-02-07T04:44:23.337Z,0.17
2019-02-07T04:45:23.370Z,0.16
2019-02-07T04:46:27.826Z,0.15
2019-02-07T04:47:23.698Z,0.16
2019-02-07T04:48:23.681Z,0.15
2019-02-07T04:49:25.817Z,0.15
2019-02-07T04:50:23.748Z,0.15
2019-02-07T04:51:23.354Z,0.15
2019-02-07T04:52:23.477Z,0.16
2019-02-07T04:53:23.720Z,0.16
2019-02-07T04:54:23.372Z,0.18
2019-02-07T04:55:23.522Z,0.19
2019-02-07T04:56:23.629Z,0.21
2019-02-07T04:57:24.052Z,0.24
2019-02-07T04:58:23.386Z,0.21
2019-02-07T04:59:24.065Z,0.21
2019-02-07T05:00:23.584Z,0.19
2019-02-07T05:01:23.485Z,0.19
2019-02-07T05:02:23.392Z,0.19
2019-02-07T05:03:23.765Z,0.22
2019-02-07T05:04:25.121Z,0.2
2019-02-07T05:05:24.265Z,0.2
2019-02-07T05:06:23.477Z,0.22
2019-02-07T05:07:23.695Z,0.21
2019-02-07T05:08:23.377Z,0.21
2019-02-07T05:09:23.362Z,0.2
2019-02-07T05:10:23.801Z,0.19
2019-02-07T05:11:23.346Z,0.22
2019-02-07T05:12:25.924Z,0.23
2019-02-07T05:13:23.846Z,0.24
2019-02-07T05:14:23.537Z,0.26
2019-02-07T05:15:23.354Z,0.27
2019-02-07T05:16:23.302Z,0.27
2019-02-07T05:17:23.555Z,0.27
2019-02-07T05:18:23.466Z,0.3
2019-02-07T05:19:23.782Z,0.27
2019-02-07T05:20:23.277Z,0.28
2019-02-07T05:21:23.352Z,0.28
2019-02-07T05:22:23.682Z,0.26
2019-02-07T05:23:23.798Z,0.25
2019-02-07T05:24:23.823Z,0.26
2019-02-07T05:25:23.294Z,0.27
2019-02-07T05:26:23.323Z,0.27
2019-02-07T05:27:25.755Z,0.27
2019-02-07T05:28:23.117Z,0.24
2019-02-07T05:29:25.144Z,0.26
2019-02-07T05:30:23.475Z,0.26
2019-02-07T05:31:23.460Z,0.26
2019-02-07T05:32:23.348Z,0.25
2019-02-07T05:33:23.338Z,0.27
2019-02-07T05:34:23.332Z,0.29
2019-02-07T05:35:26.606Z,0.28
2019-02-07T05:36:23.600Z,0.28
2019-02-07T05:37:23.369Z,0.27
2019-02-07T05:38:24.140Z,0.28
2019-02-07T05:39:23.295Z,0.28
2019-02-07T05:40:23.545Z,0.29
2019-02-07T05:41:23.102Z,0.29
2019-02-07T05:42:23.497Z,0.28
2019-02-07T05:43:23.772Z,0.29
2019-02-07T05:44:23.364Z,0.29
2019-02-07T05:45:23.651Z,0.29
2019-02-07T05:46:23.415Z,0.29
2019-02-07T05:47:23.534Z,0.32
2019-02-07T05:48:23.742Z,0.3
2019-02-07T05:49:23.342Z,0.3
2019-02-07T05:50:25.346Z,0.32
2019-02-07T05:51:23.674Z,0.28
2019-02-07T05:52:23.690Z,0.31
2019-02-07T05:53:25.090Z,0.29
2019-02-07T05:54:23.491Z,0.26
2019-02-07T05:55:23.445Z,0.27
2019-02-07T05:56:23.817Z,0.27
2019-02-07T05:57:23.608Z,0.24
2019-02-07T05:58:25.957Z,0.25
2019-02-07T05:59:23.967Z,0.22
2019-02-07T06:00:25.079Z,0.21
2019-02-07T06:01:25.072Z,0.22
2019-02-07T06:02:23.217Z,0.22
2019-02-07T06:03:23.234Z,0.22
2019-02-07T06:04:24.218Z,0.2
2019-02-07T06:05:23.409Z,0.21
2019-02-07T06:06:23.325Z,0.21
2019-02-07T06:07:23.568Z,0.21
2019-02-07T06:08:23.917Z,0.2
2019-02-07T06:09:23.641Z,0.2
2019-02-07T06:10:23.700Z,0.2
2019-02-07T06:11:23.246Z,0.18
2019-02-07T06:12:23.442Z,0.2
2019-02-07T06:13:24.545Z,0.2
2019-02-07T06:14:23.346Z,0.19
2019-02-07T06:15:23.470Z,0.19
2019-02-07T06:16:23.359Z,0.17
2019-02-07T06:17:23.230Z,0.17
2019-02-07T06:18:23.211Z,0.21
2019-02-07T06:19:23.543Z,0.23
2019-02-07T06:20:23.466Z,0.22
2019-02-07T06:21:25.288Z,0.21
2019-02-07T06:22:23.216Z,0.21
2019-02-07T06:23:23.338Z,0.2
2019-02-07T06:24:23.188Z,0.2
2019-02-07T06:25:23.570Z,0.21
2019-02-07T06:26:23.376Z,0.21
2019-02-07T06:27:23.336Z,0.21
2019-02-07T06:28:23.390Z,0.22
2019-02-07T06:29:25.956Z,0.2
2019-02-07T06:30:23.481Z,0.21
2019-02-07T06:31:23.742Z,0.22
2019-02-07T06:32:23.449Z,0.21
2019-02-07T06:33:23.754Z,0.19
2019-02-07T06:34:29.769Z,0.22
2019-02-07T06:35:24.073Z,0.21
2019-02-07T06:36:23.453Z,0.21
2019-02-07T06:37:23.858Z,0.19
2019-02-07T06:38:23.544Z,0.2
2019-02-07T06:39:23.315Z,0.21
2019-02-07T06:40:23.555Z,0.2
2019-02-07T06:41:23.900Z,0.2
2019-02-07T06:42:23.661Z,0.17
2019-02-07T06:43:23.181Z,0.19
2019-02-07T06:44:23.778Z,0.17
2019-02-07T06:45:23.183Z,0.16
2019-02-07T06:46:24.194Z,0.15
2019-02-07T06:47:23.989Z,0.16
2019-02-07T06:48:23.973Z,0.18
2019-02-07T06:49:24.183Z,0.16
2019-02-07T06:50:23.297Z,0.17
2019-02-07T06:51:23.569Z,0.17
2019-02-07T06:52:25.194Z,0.19
2019-02-07T06:53:24.400Z,0.18
2019-02-07T06:54:23.779Z,0.19
2019-02-07T06:55:23.591Z,0.2
2019-02-07T06:56:23.597Z,0.18
2019-02-07T06:57:23.351Z,0.19
2019-02-07T06:58:23.415Z,0.2
2019-02-07T06:59:23.437Z,0.22
2019-02-07T07:00:25.955Z,0.19
2019-02-07T07:01:23.196Z,0.21
2019-02-07T07:02:23.310Z,0.21
2019-02-07T07:03:23.332Z,0.22
2019-02-07T07:04:23.866Z,0.22
2019-02-07T07:05:23.440Z,0.23
2019-02-07T07:06:23.467Z,0.26
2019-02-07T07:07:23.352Z,0.24
2019-02-07T07:08:26.111Z,0.26
2019-02-07T07:09:23.770Z,0.28
2019-02-07T07:10:23.236Z,0.29
2019-02-07T07:11:23.267Z,0.3
2019-02-07T07:12:23.181Z,0.32
2019-02-07T07:13:23.805Z,0.31
2019-02-07T07:14:24.045Z,0.29
2019-02-07T07:15:23.165Z,0.29
2019-02-07T07:16:25.695Z,0.27
2019-02-07T07:17:27.761Z,0.27
2019-02-07T07:18:23.315Z,0.27
2019-02-07T07:19:23.234Z,0.28
2019-02-07T07:20:23.451Z,0.28
2019-02-07T07:21:23.285Z,0.27
2019-02-07T07:22:23.169Z,0.28
2019-02-07T07:23:23.367Z,0.28
2019-02-07T07:24:25.915Z,0.29
2019-02-07T07:25:23.480Z,0.29
2019-02-07T07:26:23.608Z,0.28
2019-02-07T07:27:23.203Z,0.3
2019-02-07T07:28:23.605Z,0.29
2019-02-07T07:29:23.133Z,0.33
2019-02-07T07:30:23.229Z,0.31
2019-02-07T07:31:23.434Z,0.33
2019-02-07T07:32:26.294Z,0.34
2019-02-07T07:33:23.503Z,0.36
2019-02-07T07:34:23.368Z,0.35
2019-02-07T07:35:23.372Z,0.39
2019-02-07T07:36:23.382Z,0.39
2019-02-07T07:37:23.407Z,0.39
2019-02-07T07:38:23.198Z,0.38
2019-02-07T07:39:23.666Z,0.39
2019-02-07T07:40:23.370Z,0.39
2019-02-07T07:41:23.364Z,0.41
2019-02-07T07:42:24.014Z,0.42
2019-02-07T07:43:23.254Z,0.46
2019-02-07T07:44:23.179Z,0.47
2019-02-07T07:45:23.217Z,0.49
2019-02-07T07:46:23.407Z,0.48
2019-02-07T07:47:23.492Z,0.51
2019-02-07T07:48:23.579Z,0.52
2019-02-07T07:49:23.440Z,0.54
2019-02-07T07:50:23.434Z,0.54
2019-02-07T07:51:23.052Z,0.57
2019-02-07T07:52:23.275Z,0.55
2019-02-07T07:53:23.470Z,0.58
2019-02-07T07:54:23.244Z,0.58
2019-02-07T07:55:25.085Z,0.58
2019-02-07T07:56:23.177Z,0.58
2019-02-07T07:57:23.134Z,0.61
2019-02-07T07:58:23.105Z,0.6
2019-02-07T07:59:23.170Z,0.62
2019-02-07T08:00:23.198Z,0.6
2019-02-07T08:01:23.302Z,0.64
2019-02-07T08:02:23.157Z,0.66
2019-02-07T08:03:26.469Z,0.65
2019-02-07T08:04:23.180Z,0.67
2019-02-07T08:05:23.151Z,0.66
2019-02-07T08:06:23.210Z,0.69
2019-02-07T08:07:23.333Z,0.71
2019-02-07T08:08:23.385Z,0.71
2019-02-07T08:09:23.363Z,0.69
2019-02-07T08:10:23.255Z,0.72
2019-02-07T08:11:23.231Z,0.7
2019-02-07T08:12:23.364Z,0.71
2019-02-07T08:13:23.175Z,0.71
2019-02-07T08:14:23.398Z,0.73
2019-02-07T08:15:23.416Z,0.76
2019-02-07T08:16:23.440Z,0.76
2019-02-07T08:17:22.860Z,0.76
2019-02-07T08:18:23.634Z,0.76
2019-02-07T08:19:24.197Z,0.78
2019-02-07T08:20:23.468Z,0.78
2019-02-07T08:21:23.345Z,0.78
2019-02-07T08:22:23.560Z,0.77
2019-02-07T08:23:22.870Z,0.76
2019-02-07T08:24:23.271Z,0.78
2019-02-07T08:25:23.087Z,0.85
2019-02-07T08:26:24.627Z,0.81
2019-02-07T08:27:23.138Z,0.84
2019-02-07T08:28:23.284Z,0.87
2019-02-07T08:29:24.878Z,0.89
2019-02-07T08:30:23.184Z,0.85
2019-02-07T08:31:23.018Z,0.88
2019-02-07T08:32:23.415Z,0.85
2019-02-07T08:33:23.301Z,0.88
2019-02-07T08:34:25.345Z,0.89
2019-02-07T08:35:23.087Z,0.88
2019-02-07T08:36:23.369Z,0.93
2019-02-07T08:37:23.370Z,0.92
2019-02-07T08:38:23.411Z,0.95
2019-02-07T08:39:23.345Z,0.91
2019-02-07T08:40:23.162Z,0.93
2019-02-07T08:41:23.270Z,0.92
2019-02-07T08:42:25.906Z,0.94
2019-02-07T08:43:23.516Z,0.95
2019-02-07T08:44:23.374Z,0.96
2019-02-07T08:45:23.672Z,0.99
2019-02-07T08:46:23.920Z,0.97
2019-02-07T08:47:23.112Z,0.98
2019-02-07T08:48:23.564Z,0.97
2019-02-07T08:49:22.990Z,1.02
2019-02-07T08:50:27.289Z,0.99
2019-02-07T08:51:23.072Z,1
2019-02-07T08:52:24.902Z,1.01
2019-02-07T08:53:23.221Z,1.02
2019-02-07T08:54:23.218Z,1.01
2019-02-07T08:55:23.883Z,1.03
2019-02-07T08:56:23.487Z,1.03
2019-02-07T08:57:23.151Z,1.03
2019-02-07T08:58:23.735Z,1.02
2019-02-07T08:59:23.313Z,1.01
2019-02-07T09:00:23.300Z,1.03
2019-02-07T09:01:23.188Z,1.04
2019-02-07T09:02:23.193Z,1.04
2019-02-07T09:03:23.272Z,1.08
2019-02-07T09:04:22.970Z,1.09
2019-02-07T09:05:25.238Z,1.1
2019-02-07T09:06:23.837Z,1.12
2019-02-07T09:07:22.974Z,1.14
2019-02-07T09:08:23.452Z,1.13
2019-02-07T09:09:23.048Z,1.15
2019-02-07T09:10:23.347Z,1.17
2019-02-07T09:11:23.177Z,1.19
2019-02-07T09:12:23.768Z,1.19
2019-02-07T09:13:25.517Z,1.19
2019-02-07T09:14:23.403Z,1.16
2019-02-07T09:15:22.947Z,1.19
2019-02-07T09:16:23.226Z,1.2
2019-02-07T09:17:23.018Z,1.21
2019-02-07T09:18:24.813Z,1.21
2019-02-07T09:19:23.410Z,1.21
2019-02-07T09:20:22.976Z,1.21
2019-02-07T09:21:25.481Z,1.25
2019-02-07T09:22:24.333Z,1.26
2019-02-07T09:23:22.988Z,1.28
2019-02-07T09:24:23.083Z,1.26
2019-02-07T09:25:23.460Z,1.25
2019-02-07T09:26:23.395Z,1.25
2019-02-07T09:27:23.182Z,1.24
2019-02-07T09:28:23.269Z,1.24
2019-02-07T09:29:25.503Z,1.2
2019-02-07T09:30:23.127Z,1.19
2019-02-07T09:31:22.958Z,1.18
2019-02-07T09:32:23.238Z,1.19
2019-02-07T09:33:27.274Z,1.21
2019-02-07T09:34:23.059Z,1.21
2019-02-07T09:35:23.205Z,1.21
2019-02-07T09:36:22.992Z,1.21
2019-02-07T09:37:22.998Z,1.2
2019-02-07T09:38:23.297Z,1.2
2019-02-07T09:39:23.341Z,1.21
2019-02-07T09:40:22.940Z,1.2
2019-02-07T09:41:22.938Z,1.21
2019-02-07T09:42:23.250Z,1.22
2019-02-07T09:43:25.877Z,1.23
2019-02-07T09:44:24.727Z,1.24
2019-02-07T09:45:23.037Z,1.21
2019-02-07T09:46:23.198Z,1.23
2019-02-07T09:47:23.200Z,1.22
2019-02-07T09:48:24.761Z,1.24
2019-02-07T09:49:23.414Z,1.25
2019-02-07T09:50:23.251Z,1.26
2019-02-07T09:51:22.955Z,1.27
2019-02-07T09:52:25.560Z,1.28
2019-02-07T09:53:24.565Z,1.28
2019-02-07T09:54:22.969Z,1.27
2019-02-07T09:55:24.740Z,1.29
2019-02-07T09:56:23.302Z,1.29
2019-02-07T09:57:22.993Z,1.3
2019-02-07T09:58:22.883Z,1.32
2019-02-07T09:59:23.361Z,1.34
2019-02-07T10:00:25.912Z,1.34
2019-02-07T10:01:23.186Z,1.34
2019-02-07T10:02:22.894Z,1.35
2019-02-07T10:03:23.287Z,1.36
2019-02-07T10:04:23.326Z,1.35
2019-02-07T10:05:23.222Z,1.35
2019-02-07T10:06:23.752Z,1.37
2019-02-07T10:07:23.340Z,1.38
2019-02-07T10:08:23.504Z,1.38
2019-02-07T10:09:22.986Z,1.35
2019-02-07T10:10:23.246Z,1.38
2019-02-07T10:11:23.234Z,1.39
2019-02-07T10:12:23.372Z,1.41
2019-02-07T10:13:23.563Z,1.41
2019-02-07T10:14:22.844Z,1.4
2019-02-07T10:15:25.091Z,1.4
2019-02-07T10:16:23.199Z,1.42
2019-02-07T10:17:23.307Z,1.42
2019-02-07T10:18:33.540Z,1.42
2019-02-07T10:19:24.505Z,1.42
2019-02-07T10:20:22.823Z,1.45
2019-02-07T10:21:22.978Z,1.43
2019-02-07T10:22:24.709Z,1.46
2019-02-07T10:23:25.985Z,1.46
2019-02-07T10:24:22.903Z,1.46
2019-02-07T10:25:22.836Z,1.46
2019-02-07T10:26:23.037Z,1.43
2019-02-07T10:27:23.215Z,1.44
2019-02-07T10:28:23.260Z,1.43
2019-02-07T10:29:24.696Z,1.46
2019-02-07T10:30:23.161Z,1.44
2019-02-07T10:31:23.117Z,1.44
2019-02-07T10:32:23.181Z,1.46
2019-02-07T10:33:23.209Z,1.48
2019-02-07T10:34:23.202Z,1.51
2019-02-07T10:35:23.552Z,1.51
2019-02-07T10:36:22.860Z,1.52
2019-02-07T10:37:22.812Z,1.54
2019-02-07T10:38:24.127Z,1.56
2019-02-07T10:39:22.938Z,1.59
2019-02-07T10:40:22.917Z,1.59
2019-02-07T10:41:23.251Z,1.6
2019-02-07T10:42:22.869Z,1.61
2019-02-07T10:43:22.869Z,1.63
2019-02-07T10:44:23.140Z,1.64
2019-02-07T10:45:22.832Z,1.65
2019-02-07T10:46:25.198Z,1.66
2019-02-07T10:47:22.834Z,1.66
2019-02-07T10:48:22.626Z,1.65
2019-02-07T10:49:23.191Z,1.67
2019-02-07T10:50:23.207Z,1.71
2019-02-07T10:51:23.425Z,1.71
2019-02-07T10:52:22.876Z,1.71
2019-02-07T10:53:22.837Z,1.72
2019-02-07T10:54:25.552Z,1.75
2019-02-07T10:55:24.661Z,1.78
2019-02-07T10:56:22.849Z,1.8
2019-02-07T10:57:24.624Z,1.82
2019-02-07T10:58:25.924Z,1.83
2019-02-07T10:59:22.923Z,1.83
2019-02-07T11:00:24.666Z,1.85
2019-02-07T11:01:24.632Z,1.85
2019-02-07T11:02:25.956Z,1.89
2019-02-07T11:03:23.065Z,1.91
2019-02-07T11:04:22.934Z,1.95
2019-02-07T11:05:22.937Z,1.97
2019-02-07T11:06:22.891Z,1.98
2019-02-07T11:07:22.975Z,2.03
2019-02-07T11:08:23.072Z,2.04
2019-02-07T11:09:22.792Z,2.05
2019-02-07T11:10:22.951Z,2.1
2019-02-07T11:11:23.214Z,2.14
2019-02-07T11:12:23.153Z,2.17
2019-02-07T11:13:22.781Z,2.19
2019-02-07T11:14:23.250Z,2.21
2019-02-07T11:15:22.859Z,2.24
2019-02-07T11:16:23.143Z,2.28
2019-02-07T11:17:23.791Z,2.3
2019-02-07T11:18:22.904Z,2.34
2019-02-07T11:19:23.172Z,2.35
2019-02-07T11:20:22.787Z,2.39
2019-02-07T11:21:22.863Z,2.41
2019-02-07T11:22:23.496Z,2.42
2019-02-07T11:23:22.995Z,2.45
2019-02-07T11:24:22.776Z,2.43
2019-02-07T11:25:24.331Z,2.45
2019-02-07T11:26:22.813Z,2.46
2019-02-07T11:27:22.871Z,2.47
2019-02-07T11:28:22.828Z,2.49
2019-02-07T11:29:23.466Z,2.47
2019-02-07T11:30:22.901Z,2.48
2019-02-07T11:31:22.842Z,2.5
2019-02-07T11:32:22.968Z,2.52
2019-02-07T11:33:24.993Z,2.52
2019-02-07T11:34:22.841Z,2.54
2019-02-07T11:35:22.949Z,2.52
2019-02-07T11:36:22.801Z,2.53
2019-02-07T11:37:23.209Z,2.5
2019-02-07T11:38:23.105Z,2.48
2019-02-07T11:39:22.892Z,2.51
2019-02-07T11:40:22.709Z,2.48
2019-02-07T11:41:25.541Z,2.5
2019-02-07T11:42:22.872Z,2.48
2019-02-07T11:43:22.795Z,2.48
2019-02-07T11:44:23.256Z,2.47
2019-02-07T11:45:22.589Z,2.47
2019-02-07T11:46:23.257Z,2.46
2019-02-07T11:47:23.163Z,2.48
2019-02-07T11:48:22.817Z,2.48
2019-02-07T11:49:25.156Z,2.49
2019-02-07T11:50:23.401Z,2.52
2019-02-07T11:51:23.698Z,2.53
2019-02-07T11:52:23.318Z,2.55
2019-02-07T11:53:23.212Z,2.58
2019-02-07T11:54:23.213Z,2.61
2019-02-07T11:55:25.427Z,2.63
2019-02-07T11:56:23.769Z,2.7
2019-02-07T11:57:23.144Z,2.73
2019-02-07T11:58:23.227Z,2.77
2019-02-07T11:59:22.869Z,2.81
2019-02-07T12:00:22.750Z,2.88
2019-02-07T12:01:23.288Z,2.92
2019-02-07T12:02:22.828Z,2.96
2019-02-07T12:03:22.853Z,3.02
2019-02-07T12:04:22.788Z,3.04
2019-02-07T12:05:26.147Z,3.08
2019-02-07T12:06:23.096Z,3.09
2019-02-07T12:07:24.525Z,3.11
2019-02-07T12:08:22.554Z,3.15
2019-02-07T12:09:23.198Z,3.17
2019-02-07T12:10:24.077Z,3.21
2019-02-07T12:11:23.223Z,3.24
2019-02-07T12:12:23.990Z,3.27
2019-02-07T12:13:22.809Z,3.28
2019-02-07T12:14:23.330Z,3.29
2019-02-07T12:15:23.354Z,3.3
2019-02-07T12:16:23.155Z,3.32
2019-02-07T12:17:23.419Z,3.36
2019-02-07T12:18:23.181Z,3.37
2019-02-07T12:19:22.918Z,3.38
2019-02-07T12:20:25.367Z,3.39
2019-02-07T12:21:23.060Z,3.4
2019-02-07T12:22:24.546Z,3.45
2019-02-07T12:23:22.799Z,3.46
2019-02-07T12:24:23.528Z,3.48
2019-02-07T12:25:22.738Z,3.49
2019-02-07T12:26:24.539Z,3.51
2019-02-07T12:27:22.480Z,3.53
2019-02-07T12:28:25.867Z,3.55
2019-02-07T12:29:22.953Z,3.58
2019-02-07T12:30:22.918Z,3.61
2019-02-07T12:31:24.491Z,3.63
2019-02-07T12:32:23.372Z,3.64
2019-02-07T12:33:22.723Z,3.64
2019-02-07T12:34:22.825Z,3.66
2019-02-07T12:35:22.859Z,3.65
2019-02-07T12:36:23.167Z,3.67
2019-02-07T12:37:22.669Z,3.66
2019-02-07T12:38:23.015Z,3.69
2019-02-07T12:39:22.808Z,3.69
2019-02-07T12:40:22.828Z,3.67
2019-02-07T12:41:23.213Z,3.69
2019-02-07T12:42:23.072Z,3.66
2019-02-07T12:43:23.832Z,3.69
2019-02-07T12:44:22.591Z,3.65
2019-02-07T12:45:23.241Z,3.65
2019-02-07T12:46:22.741Z,3.62
2019-02-07T12:47:23.155Z,3.59
2019-02-07T12:48:22.605Z,3.58
2019-02-07T12:49:29.925Z,3.57
2019-02-07T12:50:22.682Z,3.58
2019-02-07T12:51:24.278Z,3.57
2019-02-07T12:52:22.942Z,3.57
2019-02-07T12:53:22.884Z,3.57
2019-02-07T12:54:22.644Z,3.55
2019-02-07T12:55:22.731Z,3.54
2019-02-07T12:56:23.010Z,3.53
2019-02-07T12:57:22.635Z,3.54
2019-02-07T12:58:22.482Z,3.53
2019-02-07T12:59:25.253Z,3.52
2019-02-07T13:00:22.933Z,3.55
2019-02-07T13:01:22.877Z,3.53
2019-02-07T13:02:22.578Z,3.54
2019-02-07T13:03:22.840Z,3.54
2019-02-07T13:04:23.680Z,3.55
2019-02-07T13:05:23.005Z,3.57
2019-02-07T13:06:23.074Z,3.56
2019-02-07T13:07:25.307Z,3.58
2019-02-07T13:08:22.631Z,3.6
2019-02-07T13:09:22.663Z,3.61
2019-02-07T13:10:22.694Z,3.61
2019-02-07T13:11:22.619Z,3.65
2019-02-07T13:12:23.528Z,3.67
2019-02-07T13:13:22.840Z,3.69
2019-02-07T13:14:24.608Z,3.73
2019-02-07T13:15:25.154Z,3.77
2019-02-07T13:16:23.755Z,3.81
2019-02-07T13:17:23.311Z,3.86
2019-02-07T13:18:22.797Z,3.88
2019-02-07T13:19:22.803Z,3.91
2019-02-07T13:20:23.153Z,3.93
2019-02-07T13:21:23.266Z,3.89